Time;durP1;ratioP1;P1;durP2;ratioP2;P2;SDS_P1;SDS_P2;PMS_P1;PMS_P2;Temp;Humidity;BMP_temperature;BMP_pressure;BME280_temperature;BME280_humidity;BME280_pressure;Samples;Min_cycle;Max_cycle;Signal;HPM_P1;HPM_P2
2022/01/18 00:01:30;;;;;;;4.10;3.10;;;2.30;99.90;;;;;;5053586;28;20017;-75
2022/01/18 00:03:57;;;;;;;0.47;0.45;;;2.40;99.90;;;;;;5053675;28;20542;-75
2022/01/18 00:06:23;;;;;;;0.95;0.95;;;2.30;99.90;;;;;;5035563;28;20086;-75
2022/01/18 00:08:49;;;;;;;10.70;4.43;;;2.40;99.90;;;;;;5034637;28;20037;-75
2022/01/18 00:11:20;;;;;;;3.28;2.05;;;2.30;99.90;;;;;;5053338;28;20018;-75
2022/01/18 00:13:49;;;;;;;2.00;1.90;;;2.30;99.90;;;;;;5053385;28;20021;-75
2022/01/18 00:18:55;;;;;;;7.28;1.48;;;2.40;99.90;;;;;;5053392;28;20554;-75
2022/01/18 00:24:08;;;;;;;1.80;1.45;;;2.40;99.90;;;;;;5035270;28;20031;-75
2022/01/18 00:26:34;;;;;;;13.38;4.43;;;2.40;99.90;;;;;;5053079;28;20096;-75
2022/01/18 00:29:04;;;;;;;0.32;0.32;;;2.40;99.90;;;;;;5035413;28;20453;-75
2022/01/18 00:31:58;;;;;;;6.03;3.08;;;2.50;99.90;;;;;;5035230;28;20056;-75
2022/01/18 00:34:29;;;;;;;0.30;0.30;;;2.50;99.90;;;;;;5035211;28;20083;-75
2022/01/18 00:39:40;;;;;;;0.30;0.30;;;2.40;99.90;;;;;;5034831;28;20021;-75
2022/01/18 00:42:07;;;;;;;2.45;1.98;;;2.50;99.90;;;;;;5034826;28;20036;-75
2022/01/18 00:44:33;;;;;;;0.73;0.73;;;2.60;99.90;;;;;;5035080;28;20104;-75
2022/01/18 00:46:59;;;;;;;1.00;1.00;;;2.60;99.90;;;;;;5034902;28;20092;-75
2022/01/18 00:49:24;;;;;;;0.20;0.20;;;2.70;99.90;;;;;;5052568;28;20121;-75
2022/01/18 00:51:56;;;;;;;0.88;0.82;;;2.60;99.90;;;;;;5034805;28;20025;-75
2022/01/18 00:54:33;;;;;;;0.77;0.77;;;2.70;99.90;;;;;;5034812;28;20071;-75
2022/01/18 00:56:59;;;;;;;10.07;8.70;;;2.70;99.90;;;;;;5052443;28;20024;-75
2022/01/18 00:59:25;;;;;;;1.48;1.38;;;2.70;99.90;;;;;;5034808;28;20032;-75
2022/01/18 01:01:51;;;;;;;0.95;0.95;;;2.60;99.90;;;;;;5034588;28;20079;-75
2022/01/18 01:04:21;;;;;;;5.80;2.05;;;2.60;99.90;;;;;;5018189;28;20501;-75
2022/01/18 01:06:46;;;;;;;0.75;0.65;;;2.50;99.90;;;;;;5052249;28;20082;-75
2022/01/18 01:09:12;;;;;;;2.75;1.38;;;2.50;99.90;;;;;;5034533;28;20028;-75
2022/01/18 01:11:40;;;;;;;0.28;0.28;;;2.50;99.90;;;;;;5052229;28;20021;-75
2022/01/18 01:14:11;;;;;;;6.38;2.85;;;2.60;99.90;;;;;;5034902;28;20063;-75
2022/01/18 01:43:26;;;;;;;0.40;0.40;;;2.70;99.90;;;;;;5051836;28;20032;-75
2022/01/18 01:45:54;;;;;;;1.10;0.65;;;2.70;99.90;;;;;;5017446;28;20032;-75
2022/01/18 01:48:22;;;;;;;0.50;0.50;;;2.80;99.90;;;;;;5033678;28;20029;-76
2022/01/18 01:50:53;;;;;;;0.20;0.20;;;2.80;99.90;;;;;;5034098;28;20100;-76
2022/01/18 01:53:21;;;;;;;0.30;0.30;;;2.80;99.90;;;;;;5033929;28;20032;-75
2022/01/18 01:55:48;;;;;;;0.40;0.40;;;2.80;99.90;;;;;;5051611;28;20024;-75
2022/01/18 01:58:14;;;;;;;0.20;0.20;;;2.80;99.90;;;;;;5052377;28;20017;-75
2022/01/18 02:00:50;;;;;;;0.25;0.25;;;2.90;99.90;;;;;;5051661;28;20456;-75
2022/01/18 02:03:17;;;;;;;0.47;0.47;;;3.00;99.90;;;;;;5051737;28;20025;-75
2022/01/18 02:05:43;;;;;;;0.20;0.20;;;2.90;99.90;;;;;;5051564;28;20075;-75
2022/01/18 02:08:09;;;;;;;0.20;0.20;;;2.90;99.90;;;;;;5051694;28;20501;-75
2022/01/18 02:10:37;;;;;;;0.30;0.30;;;2.90;99.90;;;;;;5051540;28;20083;-75
2022/01/18 02:13:07;;;;;;;3.30;2.42;;;2.90;99.90;;;;;;5033758;28;20021;-75
2022/01/18 02:15:39;;;;;;;3.10;1.80;;;2.90;99.90;;;;;;5033770;28;20028;-75
2022/01/18 02:23:35;;;;;;;1.67;0.55;;;2.80;99.90;;;;;;5051399;28;20017;-75
2022/01/18 02:26:01;;;;;;;0.30;0.30;;;2.90;99.90;;;;;;5017010;28;20031;-75
2022/01/18 02:28:28;;;;;;;0.98;0.95;;;2.80;99.90;;;;;;5033539;28;20017;-75
2022/01/18 02:30:55;;;;;;;1.00;0.90;;;2.80;99.90;;;;;;5017115;28;20644;-75
2022/01/18 02:33:21;;;;;;;4.45;3.53;;;2.60;99.90;;;;;;5054236;28;20021;-75
2022/01/18 02:35:47;;;;;;;2.47;1.83;;;2.50;99.90;;;;;;5055035;28;20032;-75
2022/01/18 02:38:14;;;;;;;0.30;0.30;;;2.60;99.90;;;;;;5055208;28;20108;-75
2022/01/18 02:40:41;;;;;;;1.80;1.30;;;2.60;99.90;;;;;;5055058;28;20056;-75
2022/01/18 02:45:56;;;;;;;0.20;0.20;;;2.70;99.90;;;;;;5054997;28;20047;-75
2022/01/18 02:48:22;;;;;;;0.30;0.30;;;2.80;99.90;;;;;;5020522;28;20025;-75
2022/01/18 02:50:48;;;;;;;2.20;0.90;;;2.70;99.90;;;;;;5054875;28;20100;-75
2022/01/18 02:53:16;;;;;;;0.25;0.25;;;2.70;99.90;;;;;;5036954;28;20053;-75
2022/01/18 02:55:48;;;;;;;0.88;0.88;;;2.80;99.90;;;;;;5037045;28;20439;-76
2022/01/18 02:58:21;;;;;;;3.38;2.40;;;2.80;99.90;;;;;;5037037;28;20021;-75
2022/01/18 03:03:37;;;;;;;1.27;0.43;;;2.80;99.90;;;;;;5035073;28;20040;-75
2022/01/18 03:06:07;;;;;;;0.80;0.65;;;2.80;99.90;;;;;;5036857;28;20021;-75
2022/01/18 03:08:33;;;;;;;0.52;0.52;;;2.80;99.90;;;;;;5054569;28;20021;-75
2022/01/18 03:11:00;;;;;;;0.20;0.20;;;2.70;99.90;;;;;;5036757;28;20036;-75
2022/01/18 03:13:26;;;;;;;0.82;0.82;;;2.80;99.90;;;;;;5054584;28;20292;-75
2022/01/18 03:15:52;;;;;;;0.30;0.30;;;2.80;99.90;;;;;;5054469;28;20079;-75
2022/01/18 03:18:18;;;;;;;0.63;0.63;;;2.80;99.90;;;;;;5054627;28;20040;-75
2022/01/18 03:20:44;;;;;;;5.55;5.03;;;2.90;99.90;;;;;;5054468;28;20387;-75
2022/01/18 03:23:16;;;;;;;0.20;0.20;;;3.00;99.90;;;;;;5054366;28;20025;-75
2022/01/18 03:28:37;;;;;;;0.88;0.55;;;3.10;99.90;;;;;;5040969;28;20037;-75
2022/01/18 03:31:02;;;;;;;0.30;0.30;;;3.10;99.90;;;;;;5054210;28;20028;-75
2022/01/18 03:33:28;;;;;;;0.22;0.22;;;3.00;99.90;;;;;;5054210;28;20021;-75
2022/01/18 03:35:55;;;;;;;1.55;1.00;;;2.90;99.90;;;;;;5036324;28;20032;-74
2022/01/18 03:38:22;;;;;;;0.25;0.25;;;2.90;99.90;;;;;;5036281;28;20025;-74
2022/01/18 03:40:48;;;;;;;0.20;0.20;;;2.90;99.90;;;;;;5035954;28;20065;-74
2022/01/18 03:43:14;;;;;;;0.95;0.95;;;3.00;99.90;;;;;;5036216;28;20067;-74
2022/01/18 03:45:46;;;;;;;0.73;0.73;;;2.90;99.90;;;;;;5036028;28;20025;-75
2022/01/18 03:48:29;;;;;;;0.93;0.75;;;2.90;99.90;;;;;;5019567;28;20432;-75
2022/01/18 03:50:56;;;;;;;0.60;0.47;;;2.80;99.90;;;;;;5035998;28;20025;-75
2022/01/18 03:53:22;;;;;;;0.88;0.88;;;2.70;99.90;;;;;;5053715;28;20025;-74
2022/01/18 03:55:48;;;;;;;1.45;1.23;;;2.70;99.90;;;;;;5036117;28;20078;-75
2022/01/18 03:58:14;;;;;;;2.17;0.50;;;2.60;99.90;;;;;;5053812;28;20025;-75
2022/01/18 04:00:40;;;;;;;0.90;0.90;;;2.70;99.90;;;;;;5035749;28;20025;-75
2022/01/18 04:03:07;;;;;;;0.20;0.20;;;2.70;99.90;;;;;;5035770;28;20033;-75
2022/01/18 04:05:33;;;;;;;0.30;0.30;;;2.80;99.90;;;;;;5053525;28;20151;-74
2022/01/18 04:07:58;;;;;;;0.88;0.88;;;2.80;99.90;;;;;;5035749;28;20471;-74
2022/01/18 04:10:24;;;;;;;2.53;0.70;;;2.90;99.90;;;;;;5053535;28;20024;-74
2022/01/18 04:12:50;;;;;;;0.20;0.20;;;3.00;99.90;;;;;;5035471;28;20484;-74
2022/01/18 04:15:17;;;;;;;0.30;0.30;;;3.00;99.90;;;;;;5053358;28;20032;-75
2022/01/18 04:17:52;;;;;;;0.57;0.57;;;3.00;99.90;;;;;;5053235;28;20025;-75
2022/01/18 04:26:52;;;;;;;;;;;2.80;99.90;;;;;;5012850;28;20041;-75
2022/01/18 04:28:57;;;;;;;3.30;1.77;;;2.80;99.90;;;;;;5034965;28;19912;-75
2022/01/18 04:31:24;;;;;;;0.20;0.20;;;2.70;99.90;;;;;;5053083;28;20025;-75
2022/01/18 04:33:50;;;;;;;0.68;0.68;;;2.80;99.90;;;;;;5053015;28;20389;-75
2022/01/18 04:36:17;;;;;;;1.08;0.50;;;2.80;99.90;;;;;;5034863;28;20032;-75
2022/01/18 04:38:42;;;;;;;0.20;0.20;;;2.90;99.90;;;;;;5035151;28;20025;-74
2022/01/18 04:41:12;;;;;;;0.20;0.20;;;3.00;99.90;;;;;;5034818;28;20330;-75
2022/01/18 04:49:10;;;;;;;0.20;0.20;;;3.00;99.90;;;;;;5052538;28;20025;-75
2022/01/18 04:51:37;;;;;;;0.30;0.30;;;3.00;99.90;;;;;;5034817;28;20603;-74
2022/01/18 04:54:06;;;;;;;0.20;0.20;;;3.10;99.90;;;;;;5052685;28;20031;-74
2022/01/18 04:59:09;;;;;;;0.30;0.30;;;3.10;99.90;;;;;;5052639;28;20389;-75
2022/01/18 05:01:36;;;;;;;0.55;0.55;;;3.20;99.90;;;;;;5052435;28;20495;-75
2022/01/18 05:04:01;;;;;;;0.20;0.20;;;3.30;99.90;;;;;;5052481;28;20028;-74
2022/01/18 05:06:27;;;;;;;1.27;1.17;;;3.30;99.90;;;;;;5052301;28;20029;-74
2022/01/18 05:08:54;;;;;;;0.20;0.20;;;3.30;99.90;;;;;;5052351;28;20104;-74
2022/01/18 05:11:22;;;;;;;0.30;0.30;;;3.20;99.90;;;;;;5052220;28;20437;-74
2022/01/18 05:21:25;;;;;;;2.20;1.40;;;3.20;99.90;;;;;;5051947;28;20032;-74
2022/01/18 05:23:52;;;;;;;0.27;0.27;;;3.30;99.90;;;;;;5034478;28;20028;-74
2022/01/18 05:26:19;;;;;;;2.08;0.73;;;3.30;99.90;;;;;;5034279;28;20303;-75
2022/01/18 05:28:45;;;;;;;0.40;0.40;;;3.20;99.90;;;;;;5052133;28;20037;-75
2022/01/18 05:31:11;;;;;;;0.22;0.22;;;3.30;99.90;;;;;;5052007;28;20381;-74
2022/01/18 05:33:38;;;;;;;0.20;0.20;;;3.20;99.90;;;;;;5052062;28;20517;-75
2022/01/18 05:36:04;;;;;;;0.65;0.65;;;3.40;99.90;;;;;;5051641;28;20155;-74
2022/01/18 05:38:32;;;;;;;0.30;0.30;;;3.40;99.90;;;;;;5034181;28;20029;-74
2022/01/18 05:40:58;;;;;;;0.25;0.25;;;3.40;99.90;;;;;;5034035;28;20105;-74
2022/01/18 05:43:24;;;;;;;0.38;0.38;;;3.30;99.90;;;;;;5052179;28;20017;-74
2022/01/18 05:45:49;;;;;;;0.20;0.20;;;3.20;99.90;;;;;;5051707;28;20021;-75
2022/01/18 05:48:15;;;;;;;0.20;0.20;;;3.30;99.90;;;;;;5051654;28;20021;-74
2022/01/18 05:50:41;;;;;;;0.30;0.30;;;3.30;99.90;;;;;;5051737;28;20021;-75
2022/01/18 05:53:07;;;;;;;0.20;0.20;;;3.40;99.90;;;;;;5033689;28;20032;-74
2022/01/18 05:55:32;;;;;;;0.20;0.20;;;3.40;99.90;;;;;;5051692;28;20032;-75
2022/01/18 05:57:58;;;;;;;0.30;0.30;;;3.60;99.90;;;;;;5033924;28;20538;-75
2022/01/18 06:00:26;;;;;;;0.28;0.28;;;3.60;99.90;;;;;;5033787;28;20083;-75
2022/01/18 06:08:05;;;;;;;0.20;0.20;;;3.60;99.90;;;;;;5036181;28;20033;-75
2022/01/18 06:10:31;;;;;;;5.70;2.85;;;3.70;99.90;;;;;;5055692;28;20090;-75
2022/01/18 06:13:00;;;;;;;0.30;0.30;;;3.80;99.90;;;;;;5055434;28;20072;-75
2022/01/18 06:15:26;;;;;;;0.95;0.95;;;3.50;99.90;;;;;;5037658;28;20572;-75
2022/01/18 06:17:52;;;;;;;2.03;1.92;;;3.50;99.90;;;;;;5055530;28;20104;-74
2022/01/18 06:20:17;;;;;;;0.57;0.57;;;3.30;99.90;;;;;;5055425;28;20021;-74
2022/01/18 06:22:43;;;;;;;1.75;1.15;;;3.20;99.90;;;;;;5055429;28;20032;-74
2022/01/18 06:25:10;;;;;;;0.30;0.30;;;3.20;99.90;;;;;;5037561;28;20036;-75
2022/01/18 06:27:36;;;;;;;0.22;0.22;;;3.30;99.90;;;;;;5055112;28;20021;-75
2022/01/18 06:30:02;;;;;;;1.20;1.17;;;3.30;99.90;;;;;;5037311;28;20093;-75
2022/01/18 06:32:28;;;;;;;0.30;0.30;;;3.30;99.90;;;;;;5055314;28;20017;-75
2022/01/18 06:34:54;;;;;;;0.50;0.50;;;3.20;99.90;;;;;;5055141;28;20028;-75
2022/01/18 06:37:20;;;;;;;0.20;0.20;;;3.30;99.90;;;;;;5035496;28;20021;-75
2022/01/18 06:39:45;;;;;;;0.28;0.28;;;3.30;99.90;;;;;;5056285;28;20040;-75
2022/01/18 06:42:12;;;;;;;0.20;0.20;;;3.20;99.90;;;;;;5044566;28;20377;-74
2022/01/18 06:44:38;;;;;;;1.75;1.65;;;3.20;99.90;;;;;;5049716;28;20036;-75
2022/01/18 06:47:04;;;;;;;0.40;0.40;;;3.10;99.90;;;;;;5065943;28;20025;-74
2022/01/18 06:49:30;;;;;;;0.32;0.32;;;3.00;99.90;;;;;;5061982;28;20485;-75
2022/01/18 06:51:56;;;;;;;0.20;0.20;;;3.10;99.90;;;;;;5036460;28;20036;-74
2022/01/18 06:54:22;;;;;;;0.30;0.30;;;3.20;99.90;;;;;;5036914;28;20025;-74
2022/01/18 06:56:49;;;;;;;0.82;0.77;;;3.30;99.90;;;;;;5061393;28;20023;-75
2022/01/18 06:59:16;;;;;;;0.20;0.20;;;3.30;99.90;;;;;;5074711;28;20023;-74
2022/01/18 07:01:42;;;;;;;0.30;0.30;;;3.20;99.90;;;;;;5074012;28;20029;-74
2022/01/18 07:04:08;;;;;;;1.08;1.08;;;3.40;99.90;;;;;;5048908;28;20025;-75
2022/01/18 07:06:34;;;;;;;0.30;0.30;;;3.30;99.90;;;;;;5036466;28;20507;-75
2022/01/18 07:09:01;;;;;;;0.55;0.55;;;3.30;99.90;;;;;;5036607;28;20029;-74
2022/01/18 07:11:27;;;;;;;0.73;0.73;;;3.30;99.90;;;;;;5054406;28;20049;-74
2022/01/18 07:13:53;;;;;;;1.35;0.93;;;3.10;99.90;;;;;;5047311;28;20052;-75
2022/01/18 07:16:19;;;;;;;0.77;0.77;;;2.90;99.90;;;;;;5054032;28;20021;-75
2022/01/18 07:18:45;;;;;;;0.20;0.20;;;2.90;99.90;;;;;;5034324;28;20021;-74
2022/01/18 07:21:10;;;;;;;0.30;0.30;;;2.90;99.90;;;;;;5035187;28;20107;-75
2022/01/18 07:23:37;;;;;;;0.25;0.25;;;2.90;99.90;;;;;;5018606;28;20021;-74
2022/01/18 07:26:04;;;;;;;0.90;0.90;;;3.00;99.90;;;;;;5036273;28;20492;-75
2022/01/18 07:28:30;;;;;;;0.50;0.50;;;3.20;99.90;;;;;;5054183;28;20017;-74
2022/01/18 07:30:56;;;;;;;0.28;0.28;;;3.40;99.90;;;;;;5023107;28;20077;-75
2022/01/18 07:33:22;;;;;;;0.95;0.95;;;3.50;99.90;;;;;;5039871;28;20036;-75
2022/01/18 07:35:48;;;;;;;0.65;0.65;;;3.60;99.90;;;;;;5072323;28;20017;-74
2022/01/18 07:38:17;;;;;;;0.35;0.35;;;3.60;99.90;;;;;;5070745;28;20057;-75
2022/01/18 07:40:45;;;;;;;0.30;0.30;;;3.60;99.90;;;;;;5053856;28;20485;-75
2022/01/18 07:43:16;;;;;;;0.60;0.60;;;3.60;99.90;;;;;;5035814;28;20052;-74
2022/01/18 07:45:43;;;;;;;0.30;0.30;;;3.60;99.90;;;;;;5035577;28;20024;-75
2022/01/18 07:48:09;;;;;;;0.65;0.65;;;3.70;99.90;;;;;;5053740;28;20060;-74
2022/01/18 07:50:35;;;;;;;1.17;0.90;;;3.80;99.90;;;;;;5052779;28;20078;-74
2022/01/18 07:53:00;;;;;;;2.80;2.30;;;3.60;99.90;;;;;;5052266;28;20025;-75
2022/01/18 07:55:26;;;;;;;0.40;0.40;;;3.60;99.90;;;;;;5035286;28;20064;-73
2022/01/18 07:57:53;;;;;;;0.28;0.28;;;3.50;99.90;;;;;;5052804;28;20358;-73
2022/01/18 08:00:19;;;;;;;0.35;0.35;;;3.70;99.90;;;;;;5053378;28;20056;-73
2022/01/18 08:02:45;;;;;;;0.35;0.35;;;3.80;99.90;;;;;;5052614;28;20076;-73
2022/01/18 08:05:12;;;;;;;0.20;0.20;;;3.90;99.90;;;;;;5052539;28;20032;-75
2022/01/18 08:07:39;;;;;;;0.30;0.30;;;4.00;99.90;;;;;;5041220;28;20082;-75
2022/01/18 08:10:06;;;;;;;2.10;1.40;;;4.00;99.90;;;;;;5052306;28;20029;-75
2022/01/18 08:12:32;;;;;;;0.68;0.68;;;4.10;99.90;;;;;;5038322;28;20092;-75
2022/01/18 08:15:11;;;;;;;0.20;0.20;;;4.10;99.90;;;;;;5042683;28;20463;-74
2022/01/18 08:17:37;;;;;;;2.60;1.45;;;4.00;99.90;;;;;;5047605;28;20565;-75
2022/01/18 08:20:03;;;;;;;0.20;0.20;;;4.00;99.90;;;;;;5052034;28;20067;-74
2022/01/18 08:22:29;;;;;;;0.60;0.60;;;4.00;99.90;;;;;;5050930;28;20036;-75
2022/01/18 08:24:54;;;;;;;0.30;0.30;;;4.00;99.90;;;;;;5050576;28;20029;-75
2022/01/18 08:27:21;;;;;;;0.30;0.30;;;4.10;99.90;;;;;;5042010;28;20033;-75
2022/01/18 08:29:47;;;;;;;0.30;0.30;;;4.00;99.90;;;;;;5051140;28;20025;-75
2022/01/18 08:32:13;;;;;;;0.35;0.35;;;4.00;99.90;;;;;;5035271;28;20025;-75
2022/01/18 08:34:39;;;;;;;0.20;0.20;;;4.10;99.90;;;;;;5051814;28;20072;-74
2022/01/18 08:37:04;;;;;;;0.20;0.20;;;4.10;99.90;;;;;;5037906;28;20096;-75
2022/01/18 08:39:30;;;;;;;4.15;3.78;;;4.20;99.90;;;;;;5041565;28;20029;-75
2022/01/18 08:41:57;;;;;;;1.02;0.85;;;4.00;99.90;;;;;;5051201;28;20148;-75
2022/01/18 08:44:23;;;;;;;0.20;0.20;;;4.10;99.90;;;;;;5041247;28;20111;-76
2022/01/18 08:46:48;;;;;;;0.35;0.35;;;4.20;99.90;;;;;;5051315;28;20028;-75
2022/01/18 08:49:14;;;;;;;2.45;1.52;;;4.20;99.90;;;;;;5035928;28;20032;-76
2022/01/18 08:51:40;;;;;;;0.63;0.63;;;4.10;99.90;;;;;;5040562;28;20656;-75
2022/01/18 08:54:07;;;;;;;1.00;1.00;;;3.90;99.90;;;;;;5042836;28;20082;-75
2022/01/18 08:56:32;;;;;;;2.42;2.30;;;4.10;99.90;;;;;;5051033;28;20028;-75
2022/01/18 08:58:58;;;;;;;0.20;0.20;;;4.10;99.90;;;;;;5042643;28;20459;-75
2022/01/18 09:01:24;;;;;;;0.20;0.20;;;4.00;99.90;;;;;;5050827;28;20417;-75
2022/01/18 09:03:50;;;;;;;1.55;1.38;;;3.90;99.90;;;;;;5050677;28;20025;-75
2022/01/18 09:06:18;;;;;;;0.20;0.20;;;3.70;99.90;;;;;;5035121;28;20039;-75
2022/01/18 09:08:54;;;;;;;0.20;0.20;;;3.80;99.90;;;;;;5051140;28;20032;-76
2022/01/18 09:11:20;;;;;;;0.20;0.20;;;3.90;99.90;;;;;;5050249;28;20451;-74
2022/01/18 09:13:46;;;;;;;0.20;0.20;;;3.90;99.90;;;;;;5051212;28;20025;-75
2022/01/18 09:16:11;;;;;;;0.20;0.20;;;4.00;99.90;;;;;;5050775;28;20025;-75
2022/01/18 09:18:38;;;;;;;0.88;0.88;;;4.10;99.90;;;;;;5033850;28;20378;-75
2022/01/18 09:21:04;;;;;;;0.20;0.20;;;4.20;99.90;;;;;;5051173;28;20104;-74
2022/01/18 09:23:30;;;;;;;2.47;0.68;;;4.20;99.90;;;;;;5050594;28;20078;-75
2022/01/18 09:25:56;;;;;;;0.20;0.20;;;4.10;99.90;;;;;;5026033;28;20424;-75
2022/01/18 09:28:21;;;;;;;3.47;2.08;;;4.30;99.90;;;;;;5050655;28;20027;-76
2022/01/18 09:30:47;;;;;;;0.40;0.40;;;4.30;99.90;;;;;;5050923;28;20094;-74
2022/01/18 09:33:13;;;;;;;0.75;0.75;;;4.40;99.90;;;;;;5050392;28;20052;-76
2022/01/18 09:35:39;;;;;;;0.20;0.20;;;4.20;99.90;;;;;;5050983;28;20025;-75
2022/01/18 09:38:05;;;;;;;0.35;0.35;;;4.20;99.90;;;;;;5050610;28;20096;-75
2022/01/18 09:40:36;;;;;;;0.32;0.32;;;4.20;99.90;;;;;;5025980;28;20400;-75
2022/01/18 09:43:08;;;;;;;0.47;0.47;;;4.10;99.90;;;;;;5050057;28;20365;-75
2022/01/18 09:45:34;;;;;;;0.30;0.30;;;4.00;99.90;;;;;;5045110;28;20396;-73
2022/01/18 09:48:00;;;;;;;0.52;0.50;;;4.10;99.90;;;;;;5035241;28;20477;-73
2022/01/18 09:50:29;;;;;;;0.40;0.40;;;4.30;99.90;;;;;;5016402;28;20549;-73
2022/01/18 09:52:56;;;;;;;0.45;0.45;;;4.30;99.90;;;;;;5049887;28;20021;-73
2022/01/18 09:55:25;;;;;;;1.65;1.10;;;4.50;99.90;;;;;;5033939;28;20028;-73
2022/01/18 09:57:52;;;;;;;1.90;0.95;;;4.60;99.90;;;;;;5050053;28;20045;-73
2022/01/18 10:00:20;;;;;;;3.20;2.83;;;4.60;99.90;;;;;;5045966;28;20459;-72
2022/01/18 10:02:47;;;;;;;7.03;3.53;;;4.60;99.90;;;;;;5046377;28;20033;-73
2022/01/18 10:05:18;;;;;;;0.30;0.30;;;4.40;99.90;;;;;;5027035;28;20392;-73
2022/01/18 10:07:44;;;;;;;1.25;1.15;;;4.40;99.90;;;;;;5050043;28;20029;-73
2022/01/18 10:10:10;;;;;;;0.63;0.63;;;4.40;99.90;;;;;;5050480;28;20029;-73
2022/01/18 10:12:35;;;;;;;0.40;0.40;;;4.60;99.90;;;;;;5050129;28;20021;-73
2022/01/18 10:15:04;;;;;;;0.50;0.50;;;4.90;99.90;;;;;;5050711;28;20021;-73
2022/01/18 10:17:35;;;;;;;0.20;0.20;;;5.00;99.90;;;;;;5038954;28;20036;-74
2022/01/18 10:20:13;;;;;;;0.20;0.20;;;4.90;99.90;;;;;;5038019;28;20036;-74
2022/01/18 10:22:43;;;;;;;0.20;0.20;;;5.10;99.90;;;;;;5041935;28;20029;-74
2022/01/18 10:25:18;;;;;;;0.30;0.30;;;5.30;99.90;;;;;;5040616;28;20029;-73
2022/01/18 10:27:47;;;;;;;0.50;0.50;;;5.60;99.90;;;;;;5037202;28;20404;-73
2022/01/18 10:30:21;;;;;;;0.25;0.25;;;6.00;99.90;;;;;;5032696;28;20158;-74
2022/01/18 10:33:12;;;;;;;0.20;0.20;;;6.00;99.90;;;;;;5049786;28;20496;-74
2022/01/18 10:36:03;;;;;;;0.20;0.20;;;6.20;99.90;;;;;;5050886;28;20028;-73
2022/01/18 10:38:29;;;;;;;0.50;0.50;;;6.00;99.90;;;;;;5048597;28;20055;-72
2022/01/18 10:40:55;;;;;;;0.30;0.30;;;5.50;99.90;;;;;;5050417;28;20081;-73
2022/01/18 10:43:32;;;;;;;0.32;0.32;;;5.40;99.90;;;;;;5049351;28;20056;-72
2022/01/18 10:46:12;;;;;;;0.30;0.30;;;5.20;99.90;;;;;;5044066;28;20025;-73
2022/01/18 10:48:46;;;;;;;0.30;0.30;;;5.20;99.90;;;;;;5045617;28;20025;-73
2022/01/18 10:51:29;;;;;;;0.20;0.20;;;5.20;99.90;;;;;;5050499;28;21368;-73
2022/01/18 10:54:00;;;;;;;0.20;0.20;;;5.30;99.90;;;;;;5048692;28;20032;-74
2022/01/18 10:56:36;;;;;;;0.30;0.30;;;5.60;99.90;;;;;;5052136;28;20017;-73
2022/01/18 10:59:02;;;;;;;0.25;0.25;;;5.60;99.90;;;;;;5053412;28;20025;-73
2022/01/18 11:01:28;;;;;;;0.20;0.20;;;5.50;99.90;;;;;;5045222;28;20082;-73
2022/01/18 11:04:11;;;;;;;0.30;0.30;;;5.70;99.90;;;;;;5052923;28;20100;-73
2022/01/18 11:06:43;;;;;;;0.32;0.32;;;5.60;99.90;;;;;;5057353;28;20108;-72
2022/01/18 11:09:15;;;;;;;0.30;0.30;;;5.60;99.90;;;;;;5053136;28;20027;-73
2022/01/18 11:11:43;;;;;;;0.20;0.20;;;5.70;99.90;;;;;;5044989;28;20052;-72
2022/01/18 11:14:09;;;;;;;0.20;0.20;;;5.60;99.90;;;;;;5052913;28;20032;-73
2022/01/18 11:16:41;;;;;;;0.28;0.28;;;6.70;99.90;;;;;;5052881;28;20017;-73
2022/01/18 11:19:17;;;;;;;0.20;0.20;;;7.60;99.90;;;;;;5052673;28;20075;-73
2022/01/18 11:21:51;;;;;;;0.20;0.20;;;8.00;99.90;;;;;;5035819;28;20029;-74
2022/01/18 11:24:19;;;;;;;0.68;0.68;;;9.10;96.40;;;;;;5048255;28;20437;-73
2022/01/18 11:26:45;;;;;;;0.32;0.32;;;9.20;92.10;;;;;;5052715;28;20496;-73
2022/01/18 11:29:16;;;;;;;0.43;0.43;;;9.00;91.10;;;;;;5021114;28;20869;-74
2022/01/18 11:31:45;;;;;;;0.20;0.20;;;8.70;91.10;;;;;;5053042;28;20620;-73
2022/01/18 11:34:16;;;;;;;0.20;0.20;;;8.20;92.90;;;;;;5051993;28;20082;-72
2022/01/18 11:36:48;;;;;;;0.20;0.20;;;7.80;93.10;;;;;;5041950;28;20481;-72
2022/01/18 11:39:17;;;;;;;0.20;0.20;;;7.60;93.90;;;;;;5032189;28;20037;-73
2022/01/18 11:41:44;;;;;;;0.10;0.10;;;7.60;93.50;;;;;;5052527;28;20071;-73
2022/01/18 11:44:18;;;;;;;0.30;0.30;;;7.40;94.10;;;;;;5052334;28;20525;-73
2022/01/18 11:46:45;;;;;;;0.20;0.20;;;7.40;94.00;;;;;;5051280;28;20043;-72
2022/01/18 11:49:21;;;;;;;0.20;0.20;;;8.70;92.60;;;;;;5052380;28;20523;-73
2022/01/18 11:51:58;;;;;;;0.20;0.20;;;9.80;91.30;;;;;;5047338;28;20051;-73
2022/01/18 11:57:24;;;;;;;0.30;0.30;;;8.70;90.90;;;;;;5046717;28;20041;-73
2022/01/18 12:00:17;;;;;;;0.47;0.47;;;7.80;92.50;;;;;;5030471;28;20547;-72
2022/01/18 12:02:46;;;;;;;0.28;0.28;;;7.70;94.40;;;;;;5021955;28;20044;-73
2022/01/18 12:05:20;;;;;;;0.10;0.10;;;7.50;93.90;;;;;;5046288;28;20389;-73
2022/01/18 12:07:48;;;;;;;0.40;0.40;;;7.20;94.10;;;;;;5052636;28;20067;-73
2022/01/18 12:10:38;;;;;;;0.25;0.25;;;6.60;94.50;;;;;;5052096;28;20017;-73
2022/01/18 12:13:10;;;;;;;0.20;0.20;;;6.30;95.80;;;;;;5052542;28;20017;-73
2022/01/18 12:15:36;;;;;;;0.20;0.20;;;6.30;97.30;;;;;;5051801;28;20032;-73
2022/01/18 12:18:26;;;;;;;0.28;0.28;;;6.20;98.00;;;;;;5048630;28;20568;-73
2022/01/18 12:20:55;;;;;;;0.30;0.30;;;6.20;97.80;;;;;;5039279;28;20526;-73
2022/01/18 12:23:24;;;;;;;1.75;1.33;;;6.00;98.40;;;;;;5048030;28;20443;-73
2022/01/18 12:26:00;;;;;;;0.40;0.40;;;5.90;98.70;;;;;;5051745;28;20091;-73
2022/01/18 12:28:56;;;;;;;0.30;0.30;;;6.10;99.20;;;;;;5052366;28;20073;-73
2022/01/18 12:34:52;;;;;;;0.20;0.20;;;6.20;98.40;;;;;;5033275;28;20041;-73
2022/01/18 12:37:19;;;;;;;4.95;0.68;;;6.00;99.40;;;;;;5038459;28;20040;-73
2022/01/18 12:44:20;;;;;;;;;;;5.90;99.90;;;;;;5046014;28;20036;-73
2022/01/18 12:45:09;;;;;;;0.52;0.52;;;6.00;99.90;;;;;;5051321;28;19995;-73
2022/01/18 12:47:37;;;;;;;0.20;0.20;;;5.90;99.90;;;;;;5040962;28;20120;-73
2022/01/18 12:50:09;;;;;;;0.30;0.30;;;5.80;99.90;;;;;;5034767;28;20116;-73
2022/01/18 12:52:52;;;;;;;0.40;0.40;;;6.00;99.90;;;;;;5047172;28;20505;-73
2022/01/18 12:55:38;;;;;;;0.82;0.77;;;5.90;99.50;;;;;;5038213;28;20391;-73
2022/01/18 12:58:10;;;;;;;0.25;0.25;;;5.90;99.90;;;;;;5045435;28;20392;-73
2022/01/18 13:00:41;;;;;;;;;;;6.00;99.90;;;;;;5026279;28;20033;-73
2022/01/18 13:03:06;;;;;;;0.20;0.20;;;6.00;99.20;;;;;;5051063;28;20342;-73
2022/01/18 13:05:45;;;;;;;0.20;0.20;;;6.00;99.40;;;;;;5050337;28;20024;-74
2022/01/18 13:08:13;;;;;;;0.20;0.20;;;6.10;98.60;;;;;;5040645;28;20412;-74
2022/01/18 13:10:42;;;;;;;0.60;0.60;;;5.90;99.70;;;;;;5035561;28;20108;-73
2022/01/18 13:13:09;;;;;;;0.30;0.30;;;5.90;99.40;;;;;;5023427;28;20463;-73
2022/01/18 13:16:06;;;;;;;0.20;0.20;;;5.90;99.40;;;;;;5038465;28;20416;-74
2022/01/18 13:26:49;;;;;;;2.08;0.65;;;6.00;98.60;;;;;;5050422;28;20163;-73
2022/01/18 13:29:19;;;;;;;0.40;0.40;;;6.00;98.70;;;;;;5042885;28;20035;-73
2022/01/18 13:31:47;;;;;;;0.40;0.40;;;5.80;98.70;;;;;;5046037;28;20045;-73
2022/01/18 13:34:16;;;;;;;0.38;0.38;;;5.70;99.50;;;;;;5040184;28;20059;-73
2022/01/18 13:36:52;;;;;;;0.20;0.20;;;5.80;99.90;;;;;;5050152;28;20082;-74
2022/01/18 13:39:44;;;;;;;0.30;0.30;;;5.70;98.70;;;;;;5039674;28;20025;-74
2022/01/18 13:42:13;;;;;;;0.30;0.30;;;5.80;99.90;;;;;;5042865;28;20044;-74
2022/01/18 13:44:39;;;;;;;0.30;0.30;;;5.70;99.90;;;;;;5041126;28;20079;-73
2022/01/18 13:47:17;;;;;;;1.13;1.05;;;5.70;99.90;;;;;;5041138;28;20120;-74
2022/01/18 13:49:43;;;;;;;0.20;0.20;;;5.50;99.90;;;;;;5043766;28;20029;-73
2022/01/18 13:52:12;;;;;;;0.63;0.63;;;5.40;99.90;;;;;;5020532;28;20112;-73
2022/01/18 13:54:45;;;;;;;1.48;1.38;;;5.50;99.90;;;;;;5027787;28;20017;-73
2022/01/18 13:57:11;;;;;;;0.20;0.20;;;5.40;99.90;;;;;;5050339;28;20025;-73
2022/01/18 13:59:36;;;;;;;0.57;0.57;;;5.40;99.90;;;;;;5039036;28;20089;-73
2022/01/18 14:02:20;;;;;;;0.35;0.35;;;5.30;99.90;;;;;;5030036;28;20591;-73
2022/01/18 14:05:04;;;;;;;0.20;0.20;;;5.30;99.90;;;;;;5050480;28;20100;-73
2022/01/18 14:07:30;;;;;;;0.30;0.30;;;5.20;99.90;;;;;;5039004;28;20056;-73
2022/01/18 14:09:59;;;;;;;0.50;0.50;;;5.10;99.90;;;;;;5043891;28;20444;-74
2022/01/18 14:12:30;;;;;;;0.85;0.85;;;4.80;99.90;;;;;;5042838;28;20032;-74
2022/01/18 14:14:56;;;;;;;0.22;0.22;;;4.80;99.90;;;;;;5050419;28;20309;-73
2022/01/18 14:17:21;;;;;;;0.22;0.22;;;4.90;99.90;;;;;;5049525;28;20021;-73
2022/01/18 14:19:47;;;;;;;0.20;0.20;;;4.90;99.90;;;;;;5020923;28;20388;-73
2022/01/18 14:22:16;;;;;;;0.20;0.20;;;5.00;99.90;;;;;;5033494;28;20388;-73
2022/01/18 14:24:44;;;;;;;0.20;0.20;;;4.90;99.90;;;;;;5026984;28;20025;-73
2022/01/18 14:27:13;;;;;;;0.22;0.22;;;5.00;99.90;;;;;;5049473;28;20025;-73
2022/01/18 14:29:42;;;;;;;0.57;0.57;;;5.20;99.90;;;;;;5053552;28;20047;-73
2022/01/18 14:32:21;;;;;;;1.67;1.55;;;5.20;99.90;;;;;;5053432;28;20397;-73
2022/01/18 14:34:52;;;;;;;1.25;0.88;;;5.00;99.90;;;;;;5026655;28;20078;-73
2022/01/18 14:37:18;;;;;;;3.00;1.58;;;5.00;99.90;;;;;;5041311;28;20447;-73
2022/01/18 14:39:59;;;;;;;0.28;0.28;;;4.90;99.90;;;;;;5053834;28;20451;-73